Time;durP1;ratioP1;P1;durP2;ratioP2;P2;SDS_P1;SDS_P2;PMS_P1;PMS_P2;Temp;Humidity;BMP_temperature;BMP_pressure;BME280_temperature;BME280_humidity;BME280_pressure;Samples;Min_cycle;Max_cycle;Signal;HPM_P1;HPM_P2
2022/05/03 00:04:59;;;;;;;22.10;9.70;;;22.70;61.70;;;;;;215771;1293;22563;-43
2022/05/03 00:10:13;;;;;;;31.00;10.00;;;22.70;61.70;;;;;;215803;1293;25375;-42
2022/05/03 00:15:20;;;;;;;19.90;9.90;;;22.60;61.10;;;;;;215680;1293;22887;-43
2022/05/03 00:20:25;;;;;;;22.60;10.10;;;22.60;61.70;;;;;;215928;1293;22567;-43
2022/05/03 00:25:31;;;;;;;19.80;10.00;;;22.60;61.60;;;;;;215782;1293;22603;-43
2022/05/03 00:30:36;;;;;;;22.80;10.20;;;22.60;61.60;;;;;;215705;1293;22658;-44
2022/05/03 00:35:41;;;;;;;18.10;9.20;;;22.60;61.60;;;;;;215843;1293;25276;-43
2022/05/03 00:40:51;;;;;;;18.90;10.40;;;22.50;61.50;;;;;;215712;1293;22739;-42
2022/05/03 00:45:57;;;;;;;19.70;9.60;;;22.50;61.60;;;;;;215510;1293;22709;-42
2022/05/03 00:51:15;;;;;;;17.30;9.90;;;22.50;61.60;;;;;;215778;1293;22554;-44
2022/05/03 00:56:27;;;;;;;19.30;9.50;;;22.50;61.50;;;;;;215899;1293;22600;-43
2022/05/03 01:01:54;;;;;;;19.20;9.60;;;22.50;61.50;;;;;;215475;1296;22560;-43
2022/05/03 01:07:13;;;;;;;19.70;9.10;;;22.50;61.70;;;;;;215922;1293;24312;-43
2022/05/03 01:12:42;;;;;;;17.70;8.70;;;22.40;61.50;;;;;;215380;1296;22751;-45
2022/05/03 01:18:06;;;;;;;16.90;9.30;;;22.40;61.40;;;;;;215918;1293;23023;-43
2022/05/03 01:23:47;;;;;;;15.70;9.40;;;22.40;61.30;;;;;;215287;1295;22710;-44
2022/05/03 01:29:27;;;;;;;17.20;9.30;;;22.40;61.40;;;;;;215580;1293;24397;-41
2022/05/03 01:34:32;;;;;;;16.60;8.50;;;22.50;61.30;;;;;;215763;1293;26654;-42
2022/05/03 01:39:56;;;;;;;18.50;9.10;;;22.50;62.00;;;;;;215521;1293;26456;-42
2022/05/03 01:45:07;;;;;;;19.00;9.10;;;22.40;61.70;;;;;;215254;1293;25280;-45
2022/05/03 01:50:41;;;;;;;16.80;9.20;;;22.40;61.20;;;;;;216042;1293;25361;-44
2022/05/03 01:56:29;;;;;;;16.50;8.80;;;22.40;61.20;;;;;;215855;1293;22579;-43
2022/05/03 02:01:55;;;;;;;13.80;8.30;;;22.50;61.40;;;;;;215565;1293;25206;-43
2022/05/03 02:07:06;;;;;;;16.10;8.60;;;22.50;61.90;;;;;;215577;1296;22589;-42
2022/05/03 02:12:14;;;;;;;13.30;8.80;;;22.50;61.30;;;;;;215862;1293;22660;-43
2022/05/03 02:17:37;;;;;;;18.00;9.30;;;22.50;61.60;;;;;;215702;1293;25309;-44
2022/05/03 02:23:21;;;;;;;16.10;9.00;;;22.40;61.80;;;;;;215672;1296;25425;-43
2022/05/03 02:29:06;;;;;;;17.90;9.60;;;22.50;61.70;;;;;;215922;1293;22982;-42
2022/05/03 02:34:29;;;;;;;15.50;9.70;;;22.50;62.00;;;;;;215345;1293;26525;-41
2022/05/03 02:39:46;;;;;;;15.70;8.80;;;22.50;62.50;;;;;;215430;1296;25424;-45
2022/05/03 02:45:01;;;;;;;18.70;9.40;;;22.50;61.90;;;;;;216028;1293;22617;-42
2022/05/03 02:50:15;;;;;;;15.00;8.20;;;22.40;61.30;;;;;;215980;1293;25343;-42
2022/05/03 02:55:42;;;;;;;15.60;8.40;;;22.50;61.70;;;;;;215756;1293;22615;-44
2022/05/03 03:06:38;;;;;;;14.20;8.20;;;22.70;61.20;;;;;;215392;1294;24429;-44
2022/05/03 03:12:39;;;;;;;11.50;7.70;;;22.70;60.90;;;;;;215528;1294;25406;-43
2022/05/03 03:17:50;;;;;;;14.70;7.80;;;22.70;60.70;;;;;;215524;1294;27833;-46
2022/05/03 03:22:55;;;;;;;;;;;22.70;61.20;;;;;;215926;1293;22537;-49
2022/05/03 03:28:01;;;;;;;13.70;8.10;;;22.60;60.60;;;;;;215664;1294;22560;-44
2022/05/03 03:33:07;;;;;;;11.60;7.50;;;22.50;60.50;;;;;;215449;1294;22556;-43
2022/05/03 03:38:13;;;;;;;13.60;8.00;;;22.50;60.60;;;;;;216045;1293;25353;-43
2022/05/03 03:43:16;;;;;;;13.20;8.40;;;22.50;60.60;;;;;;215716;1293;25607;-44
2022/05/03 03:48:20;;;;;;;12.00;7.70;;;22.40;60.40;;;;;;215977;1293;22605;-42
2022/05/03 03:53:24;;;;;;;12.70;7.50;;;22.40;60.50;;;;;;215787;1294;22586;-45
2022/05/03 03:58:28;;;;;;;12.10;7.40;;;22.40;60.40;;;;;;215586;1293;27945;-42
2022/05/03 04:03:33;;;;;;;12.80;7.30;;;22.40;60.60;;;;;;216009;1293;25425;-42
2022/05/03 04:08:37;;;;;;;12.30;7.70;;;22.30;60.10;;;;;;215130;1296;22527;-43
2022/05/03 04:13:41;;;;;;;12.30;7.80;;;22.30;60.30;;;;;;215412;1296;25352;-43
2022/05/03 04:18:44;;;;;;;11.10;6.90;;;22.30;60.70;;;;;;215545;1296;22601;-43
2022/05/03 04:23:48;;;;;;;11.90;7.20;;;22.30;60.20;;;;;;215658;1293;456257;-42
2022/05/03 04:28:59;;;;;;;11.80;7.10;;;22.30;60.20;;;;;;215360;1294;25347;-43
2022/05/03 04:34:03;;;;;;;;;;;22.30;60.50;;;;;;215780;1293;25358;-43
2022/05/03 04:39:07;;;;;;;13.20;7.30;;;22.30;60.40;;;;;;215683;1293;22581;-43
2022/05/03 04:44:12;;;;;;;13.10;7.50;;;22.20;60.10;;;;;;215910;1293;22614;-43
2022/05/03 04:49:17;;;;;;;14.10;7.70;;;22.20;60.00;;;;;;215960;1293;24379;-42
2022/05/03 04:54:26;;;;;;;14.00;7.40;;;22.20;60.00;;;;;;215768;1293;24316;-43
2022/05/03 04:59:35;;;;;;;10.60;6.80;;;22.20;59.80;;;;;;215661;1294;22575;-45
2022/05/03 05:04:40;;;;;;;11.50;7.50;;;22.20;59.80;;;;;;215995;1294;23016;-42
2022/05/03 05:10:23;;;;;;;11.30;7.00;;;22.20;59.80;;;;;;215819;1294;22579;-43
2022/05/03 05:15:08;;;;;;;10.60;6.60;;;22.20;59.70;;;;;;215406;1293;26073;-43
2022/05/03 05:20:11;;;;;;;11.50;6.20;;;22.20;59.90;;;;;;215954;1294;23144;-43
2022/05/03 05:25:15;;;;;;;10.10;6.40;;;22.20;59.60;;;;;;216142;1293;22780;-43
2022/05/03 05:30:21;;;;;;;10.20;6.40;;;22.20;59.40;;;;;;215867;1293;23087;-42
2022/05/03 05:35:24;;;;;;;9.60;6.70;;;22.20;59.50;;;;;;215808;1293;25364;-43
2022/05/03 05:40:29;;;;;;;10.30;6.80;;;22.20;59.70;;;;;;215701;1293;22752;-43
2022/05/03 05:45:32;;;;;;;10.50;6.70;;;22.20;59.30;;;;;;215878;1293;23148;-42
2022/05/03 05:50:37;;;;;;;10.30;6.20;;;22.20;59.20;;;;;;215315;1296;22602;-42
2022/05/03 05:55:42;;;;;;;11.20;6.30;;;22.20;59.10;;;;;;215898;1296;22563;-42
2022/05/03 06:00:49;;;;;;;9.70;6.40;;;22.20;59.10;;;;;;215207;1296;22589;-43
2022/05/03 06:05:53;;;;;;;10.90;6.70;;;22.20;59.00;;;;;;216063;1296;23971;-44
2022/05/03 06:10:59;;;;;;;8.60;6.00;;;22.20;59.30;;;;;;215969;1294;24250;-44
2022/05/03 06:16:08;;;;;;;11.30;7.10;;;22.20;58.90;;;;;;215996;1294;23833;-44
2022/05/03 06:21:12;;;;;;;13.50;6.70;;;22.20;58.80;;;;;;215722;1294;22593;-43
2022/05/03 06:26:16;;;;;;;9.40;6.30;;;22.20;58.80;;;;;;216009;1294;24484;-43
2022/05/03 06:31:23;;;;;;;10.40;6.70;;;22.20;58.50;;;;;;215864;1294;23986;-42
2022/05/03 06:36:27;;;;;;;9.40;6.20;;;22.20;58.60;;;;;;215339;1298;22571;-41
2022/05/03 06:41:32;;;;;;;10.10;6.70;;;22.20;58.30;;;;;;215752;1294;23429;-41
2022/05/03 06:46:36;;;;;;;10.50;5.70;;;22.20;58.80;;;;;;215755;1297;22596;-45
2022/05/03 06:51:43;;;;;;;10.10;6.20;;;22.20;58.50;;;;;;215682;1294;23658;-42
2022/05/03 06:56:47;;;;;;;10.40;6.20;;;22.30;59.00;;;;;;215619;1296;23019;-43
2022/05/03 07:01:50;;;;;;;9.60;5.80;;;22.30;58.60;;;;;;215033;1298;22566;-44
2022/05/03 07:06:54;;;;;;;10.60;5.80;;;22.30;58.70;;;;;;215319;1294;22643;-43
2022/05/03 07:11:58;;;;;;;12.20;5.90;;;22.30;58.60;;;;;;215526;1298;25368;-41
2022/05/03 07:17:07;;;;;;;9.00;5.20;;;22.30;58.90;;;;;;215041;1296;22585;-43
2022/05/03 07:27:33;;;;;;;9.80;5.90;;;22.40;58.50;;;;;;215132;1298;23954;-42
2022/05/03 07:32:38;;;;;;;18.00;6.00;;;22.40;58.80;;;;;;215093;1293;22569;-43
2022/05/03 07:37:46;;;;;;;11.70;6.60;;;22.40;58.40;;;;;;215344;1293;23035;-44
2022/05/03 07:42:50;;;;;;;10.90;5.80;;;22.50;58.40;;;;;;215513;1294;22670;-43
2022/05/03 07:47:53;;;;;;;10.80;5.60;;;22.50;58.40;;;;;;215521;1296;22597;-44
2022/05/03 07:52:57;;;;;;;9.70;5.10;;;22.50;58.40;;;;;;214868;1296;22563;-43
2022/05/03 07:58:01;;;;;;;16.50;5.50;;;22.60;57.80;;;;;;215383;1294;22604;-45
2022/05/03 08:03:05;;;;;;;7.70;4.70;;;22.60;58.10;;;;;;217597;1296;22646;-43
2022/05/03 08:08:09;;;;;;;11.90;5.20;;;22.60;58.20;;;;;;215705;1294;23945;-44
2022/05/03 08:13:13;;;;;;;10.10;4.90;;;22.70;58.00;;;;;;215180;1293;25484;-43
2022/05/03 08:18:20;;;;;;;10.10;5.00;;;22.70;57.80;;;;;;215596;1296;25281;-44
2022/05/03 08:23:35;;;;;;;7.20;5.40;;;22.60;57.00;;;;;;215262;1294;25297;-42
2022/05/03 08:28:41;;;;;;;8.80;4.40;;;22.60;55.70;;;;;;215779;1293;24555;-43
2022/05/03 08:33:50;;;;;;;9.30;4.50;;;22.40;47.00;;;;;;215738;1293;25356;-43
2022/05/03 08:44:20;;;;;;;12.50;3.80;;;22.20;44.90;;;;;;215389;1293;24465;-45
2022/05/03 08:49:36;;;;;;;10.10;3.90;;;22.10;43.00;;;;;;215410;1293;25701;-44
2022/05/03 08:54:46;;;;;;;5.10;3.40;;;21.70;41.20;;;;;;215129;1296;25482;-42
2022/05/03 08:59:57;;;;;;;9.50;3.90;;;21.40;41.60;;;;;;215402;1293;22607;-43
2022/05/03 09:05:04;;;;;;;7.60;3.90;;;21.50;41.00;;;;;;215560;1296;22727;-44
2022/05/03 09:10:16;;;;;;;4.70;3.30;;;21.40;40.90;;;;;;216003;1294;24542;-43
2022/05/03 09:15:32;;;;;;;7.40;3.60;;;21.60;40.90;;;;;;215753;1293;24328;-45
2022/05/03 09:26:31;;;;;;;6.00;3.90;;;21.80;42.20;;;;;;215678;1294;24296;-42
2022/05/03 09:32:00;;;;;;;7.70;3.40;;;22.00;41.80;;;;;;215697;1293;22850;-42
2022/05/03 09:37:09;;;;;;;11.90;4.60;;;22.00;41.70;;;;;;215460;1293;23215;-43
2022/05/03 09:48:19;;;;;;;8.30;4.00;;;21.70;41.00;;;;;;215891;1293;25251;-43
2022/05/03 09:53:26;;;;;;;7.80;3.30;;;21.60;40.90;;;;;;215900;1293;24456;-42
2022/05/03 09:58:38;;;;;;;7.10;3.60;;;21.50;41.80;;;;;;215368;1293;24052;-43
2022/05/03 10:04:15;;;;;;;6.90;3.30;;;21.90;41.80;;;;;;215598;1294;22615;-44
2022/05/03 10:09:39;;;;;;;6.20;3.30;;;22.10;42.10;;;;;;215258;1293;24262;-51
2022/05/03 10:15:13;;;;;;;5.80;3.60;;;22.10;41.80;;;;;;215428;1293;23990;-44
2022/05/03 10:20:46;;;;;;;8.20;3.90;;;22.10;42.10;;;;;;215895;1294;26535;-43
2022/05/03 10:26:05;;;;;;;7.00;4.20;;;22.30;41.50;;;;;;215192;1293;25323;-47
2022/05/03 10:31:24;;;;;;;8.70;4.10;;;22.30;39.70;;;;;;215209;1296;24284;-41
2022/05/03 10:36:31;;;;;;;9.00;4.60;;;22.40;40.30;;;;;;215816;1293;24005;-44
2022/05/03 10:41:56;;;;;;;12.00;3.90;;;22.40;40.30;;;;;;215555;1293;25334;-48
2022/05/03 10:47:41;;;;;;;7.50;3.90;;;22.50;40.70;;;;;;215848;1293;24347;-44
2022/05/03 10:59:14;;;;;;;6.30;3.60;;;22.60;40.30;;;;;;215204;1296;22809;-44
2022/05/03 11:04:22;;;;;;;7.40;3.60;;;22.70;41.20;;;;;;215318;1293;23767;-44
2022/05/03 11:09:36;;;;;;;7.80;4.50;;;22.70;41.00;;;;;;215202;1293;22571;-43
2022/05/03 11:14:44;;;;;;;8.20;4.20;;;22.50;40.60;;;;;;215389;1294;22589;-48
2022/05/03 11:19:53;;;;;;;8.10;3.90;;;22.30;40.70;;;;;;215705;1294;22612;-44
2022/05/03 11:24:59;;;;;;;6.70;3.10;;;22.30;41.70;;;;;;215709;1293;22541;-46
2022/05/03 11:30:07;;;;;;;6.60;3.70;;;22.20;39.90;;;;;;215898;1293;25502;-44
2022/05/03 11:35:22;;;;;;;7.60;3.30;;;22.30;39.80;;;;;;215401;1293;24380;-46
2022/05/03 11:40:35;;;;;;;13.10;4.20;;;22.30;39.80;;;;;;215529;1293;23853;-43
2022/05/03 11:45:39;;;;;;;9.00;3.20;;;22.30;40.10;;;;;;215190;1296;25283;-44
2022/05/03 11:56:24;;;;;;;10.80;3.50;;;22.50;40.20;;;;;;215357;1293;23945;-45
2022/05/03 12:01:57;;;;;;;7.40;3.80;;;22.60;40.80;;;;;;215200;1294;24306;-44
2022/05/03 12:07:00;;;;;;;12.70;3.40;;;22.60;40.40;;;;;;215232;1296;25241;-43
2022/05/03 12:17:27;;;;;;;7.80;4.10;;;22.60;40.90;;;;;;215437;1293;22571;-43
2022/05/03 12:22:32;;;;;;;6.30;3.80;;;22.60;40.30;;;;;;215256;1294;23077;-43
2022/05/03 12:27:46;;;;;;;6.70;3.80;;;22.50;40.00;;;;;;215459;1294;24441;-45
2022/05/03 12:32:50;;;;;;;8.40;4.00;;;22.50;40.00;;;;;;215585;1294;25344;-43
2022/05/03 12:37:54;;;;;;;7.90;4.60;;;22.60;40.10;;;;;;215613;1294;25400;-42
2022/05/03 12:43:09;;;;;;;7.80;4.80;;;22.50;39.90;;;;;;215317;1293;22585;-43
2022/05/03 12:48:12;;;;;;;9.80;4.60;;;22.50;40.20;;;;;;215558;1293;22714;-44
2022/05/03 12:53:26;;;;;;;9.20;5.30;;;22.50;39.70;;;;;;215891;1293;23115;-45
2022/05/03 12:58:31;;;;;;;13.90;4.90;;;22.50;40.10;;;;;;216220;1293;25263;-45
2022/05/03 13:03:35;;;;;;;8.70;4.90;;;22.70;40.10;;;;;;215978;1293;23990;-44
2022/05/03 13:08:39;;;;;;;12.80;5.10;;;22.70;41.00;;;;;;215752;1293;23946;-47
2022/05/03 13:13:43;;;;;;;6.90;4.40;;;22.80;43.60;;;;;;215685;1293;22592;-44
2022/05/03 13:18:46;;;;;;;7.40;4.50;;;22.90;42.60;;;;;;215772;1294;25379;-46
2022/05/03 13:24:13;;;;;;;7.10;4.20;;;23.00;42.80;;;;;;215545;1293;25232;-47
2022/05/03 13:29:39;;;;;;;7.90;4.00;;;23.10;42.80;;;;;;215294;1293;22582;-47
2022/05/03 13:34:45;;;;;;;8.40;3.50;;;23.20;42.20;;;;;;215286;1293;23177;-45
2022/05/03 13:45:24;;;;;;;8.90;3.80;;;23.20;42.30;;;;;;215277;1293;25591;-57
2022/05/03 13:51:01;;;;;;;12.30;4.10;;;23.20;41.40;;;;;;214882;1293;22588;-59
2022/05/03 13:56:14;;;;;;;9.60;4.30;;;23.10;42.20;;;;;;215906;1293;22873;-58
2022/05/03 14:01:28;;;;;;;7.30;3.90;;;23.00;42.60;;;;;;215645;1293;24403;-59
2022/05/03 14:06:36;;;;;;;9.90;4.00;;;23.00;44.30;;;;;;215575;1293;26172;-60
2022/05/03 14:11:46;;;;;;;11.60;3.50;;;23.00;44.70;;;;;;215587;1293;24347;-60
2022/05/03 14:17:12;;;;;;;17.30;4.40;;;23.00;43.00;;;;;;215514;1293;25442;-61
2022/05/03 14:22:25;;;;;;;9.70;3.90;;;23.10;43.20;;;;;;215373;1293;22658;-60
2022/05/03 14:27:32;;;;;;;9.90;4.30;;;23.10;42.30;;;;;;215526;1293;22471;-59
2022/05/03 14:32:57;;;;;;;6.50;3.20;;;23.20;42.10;;;;;;215495;1293;25639;-60
2022/05/03 14:38:09;;;;;;;10.50;4.20;;;23.10;42.20;;;;;;215501;1293;25452;-59
2022/05/03 14:43:17;;;;;;;9.30;4.10;;;23.20;42.30;;;;;;215673;1293;22566;-60
2022/05/03 14:48:37;;;;;;;6.50;3.60;;;23.20;42.70;;;;;;215218;1293;23059;-60
2022/05/03 14:53:52;;;;;;;17.20;3.70;;;23.10;42.50;;;;;;215164;1293;22611;-56
2022/05/03 15:04:21;;;;;;;10.40;4.10;;;23.10;42.50;;;;;;215725;1294;24350;-59
2022/05/03 15:09:27;;;;;;;8.70;3.90;;;23.10;43.30;;;;;;215958;1293;25395;-57
2022/05/03 15:14:37;;;;;;;9.10;3.80;;;23.00;43.00;;;;;;215873;1293;24423;-60
2022/05/03 15:19:45;;;;;;;9.90;4.40;;;23.10;43.90;;;;;;215551;1293;22613;-59
2022/05/03 15:24:51;;;;;;;8.40;3.50;;;23.00;43.10;;;;;;215712;1293;24414;-58
2022/05/03 15:30:04;;;;;;;14.60;4.70;;;23.00;42.80;;;;;;215009;1296;24321;-60
2022/05/03 15:35:13;;;;;;;11.50;4.20;;;23.00;42.20;;;;;;215612;1294;23205;-56
2022/05/03 15:40:22;;;;;;;13.60;3.90;;;23.10;44.40;;;;;;215534;1293;26636;-60
2022/05/03 15:45:27;;;;;;;6.60;3.50;;;23.20;46.00;;;;;;215665;1293;25262;-54
2022/05/03 15:50:37;;;;;;;9.30;3.90;;;23.20;46.40;;;;;;215787;1293;24526;-60
2022/05/03 15:55:43;;;;;;;8.30;3.30;;;23.30;46.30;;;;;;215805;1293;24377;-56
2022/05/03 16:00:51;;;;;;;6.70;4.10;;;23.30;45.70;;;;;;215826;1293;22599;-62
2022/05/03 16:06:07;;;;;;;8.50;4.00;;;23.20;45.20;;;;;;215613;1293;22654;-57
2022/05/03 16:11:14;;;;;;;12.30;3.80;;;23.20;44.70;;;;;;215714;1292;22625;-56
2022/05/03 16:16:21;;;;;;;9.00;3.60;;;23.10;44.80;;;;;;215755;1293;25634;-58
2022/05/03 16:21:29;;;;;;;7.80;3.90;;;23.00;43.90;;;;;;215448;1293;648098;-58
2022/05/03 16:26:34;;;;;;;7.00;3.70;;;23.00;43.30;;;;;;215662;1293;24256;-57
2022/05/03 16:31:43;;;;;;;6.20;4.00;;;22.90;42.30;;;;;;215955;1294;24122;-59
2022/05/03 16:42:20;;;;;;;7.00;3.60;;;22.90;42.30;;;;;;215967;1293;22735;-56
2022/05/03 16:47:28;;;;;;;4.80;3.20;;;22.80;41.60;;;;;;215966;1293;24444;-57
2022/05/03 16:52:38;;;;;;;5.10;3.60;;;22.80;41.90;;;;;;215206;1294;25280;-56
2022/05/03 16:57:44;;;;;;;10.40;3.50;;;22.80;41.70;;;;;;215683;1293;22882;-58
2022/05/03 17:02:59;;;;;;;6.00;4.10;;;22.70;41.70;;;;;;215983;1293;25175;-60
2022/05/03 17:08:07;;;;;;;7.30;4.40;;;22.70;41.70;;;;;;215521;1293;24462;-58
2022/05/03 17:13:24;;;;;;;6.30;4.00;;;22.70;41.50;;;;;;215887;1294;23090;-61
2022/05/03 17:18:34;;;;;;;7.60;3.80;;;22.70;41.70;;;;;;215678;1293;22767;-58
2022/05/03 17:23:47;;;;;;;5.90;4.00;;;22.60;41.50;;;;;;215641;1293;22562;-57
2022/05/03 17:28:52;;;;;;;7.70;4.20;;;22.60;41.60;;;;;;215866;1293;22647;-59
2022/05/03 17:33:56;;;;;;;6.00;3.60;;;22.60;41.60;;;;;;215833;1293;24337;-54
2022/05/03 17:39:05;;;;;;;6.70;3.30;;;22.60;42.30;;;;;;215360;1293;25452;-59
2022/05/03 17:44:13;;;;;;;8.80;3.60;;;22.70;43.40;;;;;;215164;1294;22862;-58
2022/05/03 17:49:32;;;;;;;10.10;4.10;;;22.70;43.40;;;;;;215542;1293;25287;-54
2022/05/03 17:54:38;;;;;;;10.80;4.00;;;22.70;43.50;;;;;;215549;1293;24264;-58
2022/05/03 17:59:46;;;;;;;8.20;4.30;;;22.70;44.10;;;;;;215337;1293;22625;-59
2022/05/03 18:04:51;;;;;;;6.10;4.40;;;22.70;43.70;;;;;;215508;1293;25382;-60
2022/05/03 18:09:56;;;;;;;13.20;4.80;;;22.70;44.40;;;;;;215508;1293;22615;-60
2022/05/03 18:15:01;;;;;;;10.30;4.40;;;22.70;45.10;;;;;;215262;1296;22592;-58
2022/05/03 18:20:05;;;;;;;7.20;4.50;;;22.70;45.00;;;;;;215716;1293;25332;-59
2022/05/03 18:25:11;;;;;;;7.20;3.90;;;22.80;44.90;;;;;;215832;1293;23103;-58
2022/05/03 18:30:21;;;;;;;6.30;4.10;;;22.70;44.80;;;;;;215602;1293;25370;-55
2022/05/03 18:35:40;;;;;;;;;;;;;;;;;;;;;
2022/05/03 18:40:46;;;;;;;7.20;4.10;;;22.70;44.90;;;;;;215166;1293;26545;-58
2022/05/03 18:45:57;;;;;;;12.00;4.90;;;22.70;44.00;;;;;;215661;1293;22760;-54
2022/05/03 18:51:02;;;;;;;11.70;4.30;;;22.70;45.10;;;;;;215461;1293;24931;-56
2022/05/03 18:56:06;;;;;;;8.20;3.60;;;22.70;45.30;;;;;;215820;1293;22611;-46
2022/05/03 19:01:18;;;;;;;10.60;4.40;;;22.70;45.60;;;;;;215255;1293;25739;-43
2022/05/03 19:06:28;;;;;;;13.10;4.40;;;22.80;46.80;;;;;;215572;1293;22944;-45
2022/05/03 19:11:40;;;;;;;22.40;6.00;;;22.70;48.70;;;;;;215806;1293;22588;-45
2022/05/03 19:16:51;;;;;;;19.00;4.30;;;22.80;50.30;;;;;;215844;1293;22565;-44
2022/05/03 19:22:10;;;;;;;12.00;5.00;;;22.80;50.40;;;;;;215784;1293;23005;-48
2022/05/03 19:32:49;;;;;;;11.10;4.50;;;22.80;50.10;;;;;;216751;1293;24774;-43
2022/05/03 19:37:56;;;;;;;12.90;4.40;;;22.70;49.90;;;;;;215311;1293;22833;-45
2022/05/03 19:43:19;;;;;;;7.30;4.70;;;22.70;50.00;;;;;;215497;1295;24325;-45
2022/05/03 19:48:24;;;;;;;11.30;4.60;;;22.70;49.40;;;;;;215661;1294;22741;-43
2022/05/03 19:53:29;;;;;;;8.90;4.10;;;22.70;49.40;;;;;;215506;1296;22724;-44
2022/05/03 19:58:32;;;;;;;10.40;5.00;;;22.70;49.90;;;;;;215660;1294;22605;-43
2022/05/03 20:03:45;;;;;;;12.30;4.30;;;22.80;50.00;;;;;;215474;1293;24466;-44
2022/05/03 20:08:49;;;;;;;12.00;4.50;;;22.80;49.90;;;;;;215226;1294;25233;-44
2022/05/03 20:13:54;;;;;;;13.80;4.10;;;22.80;49.40;;;;;;215348;1296;22747;-43
2022/05/03 20:18:58;;;;;;;9.10;4.10;;;22.80;49.50;;;;;;215324;1296;23227;-43
2022/05/03 20:24:02;;;;;;;11.90;4.40;;;22.80;49.50;;;;;;215718;1294;24454;-43
2022/05/03 20:29:06;;;;;;;12.20;4.50;;;22.70;50.90;;;;;;215759;1296;25276;-43
2022/05/03 20:34:10;;;;;;;10.50;3.90;;;22.70;51.70;;;;;;215395;1296;22560;-44
2022/05/03 20:39:20;;;;;;;8.80;3.90;;;22.70;51.40;;;;;;215118;1296;23499;-44
2022/05/03 20:44:33;;;;;;;13.00;4.30;;;22.70;51.60;;;;;;215425;1293;22741;-42
2022/05/03 20:49:41;;;;;;;10.20;4.30;;;22.80;54.30;;;;;;214973;1295;24332;-43
2022/05/03 20:54:48;;;;;;;12.90;4.20;;;22.80;54.00;;;;;;215476;1294;24363;-42
2022/05/03 20:59:54;;;;;;;10.90;4.10;;;22.80;53.30;;;;;;215803;1294;22567;-43
2022/05/03 21:04:59;;;;;;;10.00;4.10;;;22.80;53.30;;;;;;215124;1295;25262;-49
2022/05/03 21:10:05;;;;;;;68.90;30.40;;;22.80;53.40;;;;;;215410;1296;26504;-43
2022/05/03 21:15:11;;;;;;;66.80;30.90;;;22.80;53.60;;;;;;215727;1293;25271;-44
2022/05/03 21:20:18;;;;;;;35.30;16.80;;;22.80;53.60;;;;;;215587;1293;24290;-40
2022/05/03 21:25:22;;;;;;;31.50;15.80;;;22.90;53.50;;;;;;215874;1293;22733;-44
2022/05/03 21:30:30;;;;;;;33.50;15.70;;;22.80;53.30;;;;;;216061;1293;24365;-45
2022/05/03 21:35:35;;;;;;;38.00;15.40;;;22.90;53.40;;;;;;215504;1294;22570;-43
2022/05/03 21:40:45;;;;;;;36.40;13.60;;;22.90;53.30;;;;;;215808;1293;25340;-42
2022/05/03 21:45:56;;;;;;;30.60;13.20;;;22.90;53.10;;;;;;215655;1293;25320;-42
2022/05/03 21:50:59;;;;;;;41.40;13.40;;;22.90;53.30;;;;;;215721;1293;24319;-42
2022/05/03 21:56:04;;;;;;;26.20;11.10;;;22.90;53.00;;;;;;215833;1294;24340;-45
2022/05/03 22:01:08;;;;;;;30.40;11.60;;;22.90;53.00;;;;;;215781;1293;22584;-43
2022/05/03 22:06:16;;;;;;;26.90;11.60;;;22.90;52.90;;;;;;215873;1293;23369;-42
2022/05/03 22:11:20;;;;;;;29.70;12.30;;;22.90;53.00;;;;;;215848;1293;22820;-43
2022/05/03 22:16:24;;;;;;;25.50;10.50;;;22.90;55.00;;;;;;215968;1294;22880;-42
2022/05/03 22:21:30;;;;;;;29.70;10.90;;;22.90;55.00;;;;;;215978;1293;24450;-44
2022/05/03 22:26:38;;;;;;;28.50;12.00;;;22.90;55.10;;;;;;215451;1293;22732;-44
2022/05/03 22:31:45;;;;;;;25.40;10.50;;;22.90;54.90;;;;;;215443;1293;24491;-43
2022/05/03 22:36:52;;;;;;;25.80;10.20;;;22.90;54.70;;;;;;215595;1293;22725;-42
2022/05/03 22:41:56;;;;;;;24.70;10.40;;;22.90;54.60;;;;;;215668;1293;22591;-43
2022/05/03 22:47:00;;;;;;;22.70;10.20;;;22.90;54.50;;;;;;215211;1296;24645;-44
2022/05/03 22:52:06;;;;;;;24.30;10.00;;;22.90;54.30;;;;;;215665;1294;22596;-44
2022/05/03 22:57:14;;;;;;;20.40;9.40;;;22.90;54.20;;;;;;215815;1293;24221;-44
2022/05/03 23:02:18;;;;;;;18.40;8.70;;;22.90;54.10;;;;;;215907;1293;25365;-43
2022/05/03 23:07:26;;;;;;;19.60;8.10;;;22.90;54.40;;;;;;215933;1293;22823;-43
2022/05/03 23:12:35;;;;;;;24.00;8.90;;;22.90;54.00;;;;;;215940;1295;24237;-44
2022/05/03 23:17:39;;;;;;;23.90;9.00;;;22.90;54.80;;;;;;215156;1293;24505;-41
2022/05/03 23:22:42;;;;;;;19.20;8.20;;;22.90;55.20;;;;;;215567;1294;22599;-44
2022/05/03 23:27:46;;;;;;;19.60;8.40;;;22.80;55.00;;;;;;215279;1296;22627;-43
2022/05/03 23:32:50;;;;;;;18.40;8.50;;;22.80;55.20;;;;;;215322;1293;22589;-43
2022/05/03 23:37:54;;;;;;;15.60;7.70;;;22.80;54.90;;;;;;215861;1293;23196;-42
2022/05/03 23:42:58;;;;;;;19.80;8.00;;;22.80;54.70;;;;;;215854;1293;22579;-41
2022/05/03 23:48:02;;;;;;;21.70;8.60;;;22.80;54.50;;;;;;215539;1293;24445;-43
2022/05/03 23:53:07;;;;;;;17.80;7.60;;;22.70;54.80;;;;;;215835;1293;25586;-43
2022/05/03 23:58:12;;;;;;;15.70;7.20;;;22.60;54.50;;;;;;215885;1293;22653;-42
